sensor_id;sensor_type;location;lat;lon;timestamp;P1;durP1;ratioP1;P2;durP2;ratioP2
14092;SDS011;7123;49.468;10.992;2022-12-31T00:00:05;1.97;;;1.50;;
14092;SDS011;7123;49.468;10.992;2022-12-31T00:02:33;1.53;;;1.43;;
14092;SDS011;7123;49.468;10.992;2022-12-31T00:05:00;1.40;;;1.30;;
14092;SDS011;7123;49.468;10.992;2022-12-31T00:07:27;1.27;;;1.20;;
14092;SDS011;7123;49.468;10.992;2022-12-31T00:09:54;2.30;;;1.50;;
14092;SDS011;7123;49.468;10.992;2022-12-31T00:12:20;1.70;;;1.27;;
14092;SDS011;7123;49.468;10.992;2022-12-31T00:14:47;1.40;;;1.30;;
14092;SDS011;7123;49.468;10.992;2022-12-31T00:17:14;1.63;;;1.30;;
14092;SDS011;7123;49.468;10.992;2022-12-31T00:19:40;1.27;;;1.23;;
14092;SDS011;7123;49.468;10.992;2022-12-31T00:22:07;1.03;;;1.03;;
14092;SDS011;7123;49.468;10.992;2022-12-31T00:24:33;1.63;;;1.10;;
14092;SDS011;7123;49.468;10.992;2022-12-31T00:27:01;1.30;;;1.20;;
14092;SDS011;7123;49.468;10.992;2022-12-31T00:29:27;1.40;;;1.30;;
14092;SDS011;7123;49.468;10.992;2022-12-31T00:31:54;1.63;;;0.97;;
14092;SDS011;7123;49.468;10.992;2022-12-31T00:34:20;1.17;;;1.07;;
14092;SDS011;7123;49.468;10.992;2022-12-31T00:36:47;2.23;;;1.10;;
14092;SDS011;7123;49.468;10.992;2022-12-31T00:39:14;1.03;;;1.03;;
14092;SDS011;7123;49.468;10.992;2022-12-31T00:41:41;1.97;;;0.90;;
14092;SDS011;7123;49.468;10.992;2022-12-31T00:44:12;1.17;;;1.13;;
14092;SDS011;7123;49.468;10.992;2022-12-31T00:46:39;0.80;;;0.80;;
14092;SDS011;7123;49.468;10.992;2022-12-31T00:49:05;2.03;;;1.00;;
14092;SDS011;7123;49.468;10.992;2022-12-31T00:51:32;2.97;;;0.90;;
14092;SDS011;7123;49.468;10.992;2022-12-31T00:53:59;0.80;;;0.80;;
14092;SDS011;7123;49.468;10.992;2022-12-31T00:56:28;0.70;;;0.70;;
14092;SDS011;7123;49.468;10.992;2022-12-31T00:58:57;0.60;;;0.60;;
14092;SDS011;7123;49.468;10.992;2022-12-31T01:01:29;0.80;;;0.80;;
14092;SDS011;7123;49.468;10.992;2022-12-31T01:04:07;1.00;;;0.90;;
14092;SDS011;7123;49.468;10.992;2022-12-31T01:06:37;0.80;;;0.80;;
14092;SDS011;7123;49.468;10.992;2022-12-31T01:09:04;0.93;;;0.93;;
14092;SDS011;7123;49.468;10.992;2022-12-31T01:11:32;0.83;;;0.83;;
14092;SDS011;7123;49.468;10.992;2022-12-31T01:14:01;3.10;;;1.53;;
14092;SDS011;7123;49.468;10.992;2022-12-31T01:16:35;0.60;;;0.60;;
14092;SDS011;7123;49.468;10.992;2022-12-31T01:19:05;1.40;;;0.83;;
14092;SDS011;7123;49.468;10.992;2022-12-31T01:21:35;1.00;;;0.80;;
14092;SDS011;7123;49.468;10.992;2022-12-31T01:24:03;1.50;;;0.83;;
14092;SDS011;7123;49.468;10.992;2022-12-31T01:26:31;1.60;;;0.70;;
14092;SDS011;7123;49.468;10.992;2022-12-31T01:28:58;1.50;;;0.70;;
14092;SDS011;7123;49.468;10.992;2022-12-31T01:31:24;5.20;;;0.80;;
14092;SDS011;7123;49.468;10.992;2022-12-31T01:33:52;1.87;;;0.53;;
14092;SDS011;7123;49.468;10.992;2022-12-31T01:36:23;0.50;;;0.50;;
14092;SDS011;7123;49.468;10.992;2022-12-31T01:38:52;0.40;;;0.40;;
14092;SDS011;7123;49.468;10.992;2022-12-31T01:41:22;0.70;;;0.70;;
14092;SDS011;7123;49.468;10.992;2022-12-31T01:43:51;0.50;;;0.50;;
14092;SDS011;7123;49.468;10.992;2022-12-31T01:46:25;0.40;;;0.40;;
14092;SDS011;7123;49.468;10.992;2022-12-31T01:49:03;0.73;;;0.40;;
14092;SDS011;7123;49.468;10.992;2022-12-31T01:51:44;0.40;;;0.40;;
14092;SDS011;7123;49.468;10.992;2022-12-31T01:54:16;0.87;;;0.37;;
14092;SDS011;7123;49.468;10.992;2022-12-31T01:56:45;0.50;;;0.50;;
14092;SDS011;7123;49.468;10.992;2022-12-31T01:59:15;0.40;;;0.40;;
14092;SDS011;7123;49.468;10.992;2022-12-31T02:01:43;0.37;;;0.33;;
14092;SDS011;7123;49.468;10.992;2022-12-31T02:04:13;0.47;;;0.47;;
14092;SDS011;7123;49.468;10.992;2022-12-31T02:06:43;0.90;;;0.63;;
14092;SDS011;7123;49.468;10.992;2022-12-31T02:09:13;0.50;;;0.40;;
14092;SDS011;7123;49.468;10.992;2022-12-31T02:11:41;1.67;;;0.63;;
14092;SDS011;7123;49.468;10.992;2022-12-31T02:14:13;0.60;;;0.60;;
14092;SDS011;7123;49.468;10.992;2022-12-31T02:20:04;0.40;;;0.40;;
14092;SDS011;7123;49.468;10.992;2022-12-31T02:25:53;0.77;;;0.47;;
14092;SDS011;7123;49.468;10.992;2022-12-31T02:31:32;0.63;;;0.63;;
14092;SDS011;7123;49.468;10.992;2022-12-31T02:34:06;5.63;;;0.80;;
14092;SDS011;7123;49.468;10.992;2022-12-31T02:36:35;0.60;;;0.60;;
14092;SDS011;7123;49.468;10.992;2022-12-31T02:39:05;0.40;;;0.40;;
14092;SDS011;7123;49.468;10.992;2022-12-31T02:41:34;1.27;;;0.50;;
14092;SDS011;7123;49.468;10.992;2022-12-31T02:49:54;1.00;;;0.60;;
14092;SDS011;7123;49.468;10.992;2022-12-31T02:55:23;0.60;;;0.50;;
14092;SDS011;7123;49.468;10.992;2022-12-31T03:01:20;0.57;;;0.57;;
14092;SDS011;7123;49.468;10.992;2022-12-31T03:04:11;0.60;;;0.60;;
14092;SDS011;7123;49.468;10.992;2022-12-31T03:07:04;4.03;;;0.73;;
14092;SDS011;7123;49.468;10.992;2022-12-31T03:09:37;2.80;;;0.60;;
14092;SDS011;7123;49.468;10.992;2022-12-31T03:12:05;0.67;;;0.67;;
14092;SDS011;7123;49.468;10.992;2022-12-31T03:14:53;0.60;;;0.57;;
14092;SDS011;7123;49.468;10.992;2022-12-31T03:17:20;3.90;;;0.50;;
14092;SDS011;7123;49.468;10.992;2022-12-31T03:19:47;2.20;;;0.67;;
14092;SDS011;7123;49.468;10.992;2022-12-31T03:22:33;1.60;;;0.40;;
14092;SDS011;7123;49.468;10.992;2022-12-31T03:27:52;0.63;;;0.63;;
14092;SDS011;7123;49.468;10.992;2022-12-31T03:30:21;3.17;;;0.77;;
14092;SDS011;7123;49.468;10.992;2022-12-31T03:32:49;0.43;;;0.43;;
14092;SDS011;7123;49.468;10.992;2022-12-31T03:35:17;1.67;;;0.90;;
14092;SDS011;7123;49.468;10.992;2022-12-31T03:37:46;0.50;;;0.50;;
14092;SDS011;7123;49.468;10.992;2022-12-31T03:40:14;0.67;;;0.43;;
14092;SDS011;7123;49.468;10.992;2022-12-31T03:42:41;0.50;;;0.50;;
14092;SDS011;7123;49.468;10.992;2022-12-31T03:45:08;1.60;;;0.60;;
14092;SDS011;7123;49.468;10.992;2022-12-31T03:47:36;0.73;;;0.70;;
14092;SDS011;7123;49.468;10.992;2022-12-31T03:50:03;0.57;;;0.57;;
14092;SDS011;7123;49.468;10.992;2022-12-31T03:52:30;1.30;;;0.50;;
14092;SDS011;7123;49.468;10.992;2022-12-31T03:54:57;0.60;;;0.60;;
14092;SDS011;7123;49.468;10.992;2022-12-31T03:57:24;1.27;;;0.50;;
14092;SDS011;7123;49.468;10.992;2022-12-31T03:59:50;0.53;;;0.53;;
14092;SDS011;7123;49.468;10.992;2022-12-31T04:02:17;0.70;;;0.57;;
14092;SDS011;7123;49.468;10.992;2022-12-31T04:04:51;1.03;;;0.60;;
14092;SDS011;7123;49.468;10.992;2022-12-31T04:07:18;0.50;;;0.50;;
14092;SDS011;7123;49.468;10.992;2022-12-31T04:09:44;0.60;;;0.47;;
14092;SDS011;7123;49.468;10.992;2022-12-31T04:12:11;0.40;;;0.40;;
14092;SDS011;7123;49.468;10.992;2022-12-31T04:14:37;0.93;;;0.57;;
14092;SDS011;7123;49.468;10.992;2022-12-31T04:17:04;1.73;;;0.50;;
14092;SDS011;7123;49.468;10.992;2022-12-31T04:19:31;0.70;;;0.70;;
14092;SDS011;7123;49.468;10.992;2022-12-31T04:21:57;1.83;;;0.60;;
14092;SDS011;7123;49.468;10.992;2022-12-31T04:24:24;0.53;;;0.53;;
14092;SDS011;7123;49.468;10.992;2022-12-31T04:26:51;0.50;;;0.50;;
14092;SDS011;7123;49.468;10.992;2022-12-31T04:29:17;1.30;;;0.80;;
14092;SDS011;7123;49.468;10.992;2022-12-31T04:31:44;0.60;;;0.60;;
14092;SDS011;7123;49.468;10.992;2022-12-31T04:34:11;0.73;;;0.40;;
14092;SDS011;7123;49.468;10.992;2022-12-31T04:36:37;1.33;;;0.63;;
14092;SDS011;7123;49.468;10.992;2022-12-31T04:39:04;0.60;;;0.60;;
14092;SDS011;7123;49.468;10.992;2022-12-31T04:41:31;0.50;;;0.50;;
14092;SDS011;7123;49.468;10.992;2022-12-31T04:43:58;1.20;;;0.70;;
14092;SDS011;7123;49.468;10.992;2022-12-31T04:46:26;0.63;;;0.63;;
14092;SDS011;7123;49.468;10.992;2022-12-31T04:48:57;2.77;;;0.73;;
14092;SDS011;7123;49.468;10.992;2022-12-31T04:51:24;0.70;;;0.63;;
14092;SDS011;7123;49.468;10.992;2022-12-31T04:53:52;0.40;;;0.40;;
14092;SDS011;7123;49.468;10.992;2022-12-31T04:56:19;0.50;;;0.50;;
14092;SDS011;7123;49.468;10.992;2022-12-31T04:58:46;2.10;;;0.50;;
14092;SDS011;7123;49.468;10.992;2022-12-31T05:01:13;1.13;;;0.50;;
14092;SDS011;7123;49.468;10.992;2022-12-31T05:03:40;1.47;;;0.50;;
14092;SDS011;7123;49.468;10.992;2022-12-31T05:06:14;0.60;;;0.60;;
14092;SDS011;7123;49.468;10.992;2022-12-31T05:08:45;0.50;;;0.50;;
14092;SDS011;7123;49.468;10.992;2022-12-31T05:11:13;0.50;;;0.50;;
14092;SDS011;7123;49.468;10.992;2022-12-31T05:13:40;0.90;;;0.50;;
14092;SDS011;7123;49.468;10.992;2022-12-31T05:16:07;2.63;;;0.60;;
14092;SDS011;7123;49.468;10.992;2022-12-31T05:18:35;0.80;;;0.53;;
14092;SDS011;7123;49.468;10.992;2022-12-31T05:21:02;0.50;;;0.50;;
14092;SDS011;7123;49.468;10.992;2022-12-31T05:23:28;1.77;;;1.23;;
14092;SDS011;7123;49.468;10.992;2022-12-31T05:25:55;0.40;;;0.40;;
14092;SDS011;7123;49.468;10.992;2022-12-31T05:28:22;2.20;;;0.80;;
14092;SDS011;7123;49.468;10.992;2022-12-31T05:30:49;0.70;;;0.50;;
14092;SDS011;7123;49.468;10.992;2022-12-31T05:33:17;3.03;;;0.83;;
14092;SDS011;7123;49.468;10.992;2022-12-31T05:35:44;3.00;;;1.07;;
14092;SDS011;7123;49.468;10.992;2022-12-31T05:38:11;0.53;;;0.53;;
14092;SDS011;7123;49.468;10.992;2022-12-31T05:40:37;3.30;;;0.60;;
14092;SDS011;7123;49.468;10.992;2022-12-31T05:43:04;0.70;;;0.70;;
14092;SDS011;7123;49.468;10.992;2022-12-31T05:45:32;0.70;;;0.70;;
14092;SDS011;7123;49.468;10.992;2022-12-31T05:47:59;0.63;;;0.63;;
14092;SDS011;7123;49.468;10.992;2022-12-31T05:50:25;1.40;;;0.80;;
14092;SDS011;7123;49.468;10.992;2022-12-31T05:52:52;0.90;;;0.70;;
14092;SDS011;7123;49.468;10.992;2022-12-31T05:55:19;1.17;;;0.90;;
14092;SDS011;7123;49.468;10.992;2022-12-31T05:57:45;1.47;;;0.60;;
14092;SDS011;7123;49.468;10.992;2022-12-31T06:00:12;0.67;;;0.60;;
14092;SDS011;7123;49.468;10.992;2022-12-31T06:02:40;0.70;;;0.70;;
14092;SDS011;7123;49.468;10.992;2022-12-31T06:05:06;0.70;;;0.50;;
14092;SDS011;7123;49.468;10.992;2022-12-31T06:07:34;0.50;;;0.50;;
14092;SDS011;7123;49.468;10.992;2022-12-31T06:10:00;0.60;;;0.60;;
14092;SDS011;7123;49.468;10.992;2022-12-31T06:12:27;3.60;;;0.70;;
14092;SDS011;7123;49.468;10.992;2022-12-31T06:14:54;0.60;;;0.60;;
14092;SDS011;7123;49.468;10.992;2022-12-31T06:17:20;0.70;;;0.70;;
14092;SDS011;7123;49.468;10.992;2022-12-31T06:19:47;0.60;;;0.60;;
14092;SDS011;7123;49.468;10.992;2022-12-31T06:22:14;1.47;;;0.80;;
14092;SDS011;7123;49.468;10.992;2022-12-31T06:24:41;3.63;;;0.90;;
14092;SDS011;7123;49.468;10.992;2022-12-31T06:27:08;0.93;;;0.70;;
14092;SDS011;7123;49.468;10.992;2022-12-31T06:29:35;3.23;;;0.83;;
14092;SDS011;7123;49.468;10.992;2022-12-31T06:32:01;0.63;;;0.60;;
14092;SDS011;7123;49.468;10.992;2022-12-31T06:34:28;4.00;;;1.17;;
14092;SDS011;7123;49.468;10.992;2022-12-31T06:36:55;1.50;;;0.77;;
14092;SDS011;7123;49.468;10.992;2022-12-31T06:39:21;0.60;;;0.60;;
14092;SDS011;7123;49.468;10.992;2022-12-31T06:41:48;0.83;;;0.80;;
14092;SDS011;7123;49.468;10.992;2022-12-31T06:44:15;0.87;;;0.83;;
14092;SDS011;7123;49.468;10.992;2022-12-31T06:46:41;1.17;;;0.77;;
14092;SDS011;7123;49.468;10.992;2022-12-31T06:49:08;2.60;;;0.63;;
14092;SDS011;7123;49.468;10.992;2022-12-31T06:51:35;3.13;;;0.83;;
14092;SDS011;7123;49.468;10.992;2022-12-31T06:54:01;1.70;;;0.97;;
14092;SDS011;7123;49.468;10.992;2022-12-31T06:56:28;0.60;;;0.60;;
14092;SDS011;7123;49.468;10.992;2022-12-31T06:58:59;1.43;;;0.70;;
14092;SDS011;7123;49.468;10.992;2022-12-31T07:10:00;0.80;;;0.77;;
14092;SDS011;7123;49.468;10.992;2022-12-31T07:18:42;1.80;;;0.80;;
14092;SDS011;7123;49.468;10.992;2022-12-31T07:21:15;1.03;;;1.00;;
14092;SDS011;7123;49.468;10.992;2022-12-31T07:23:46;1.03;;;0.87;;
14092;SDS011;7123;49.468;10.992;2022-12-31T07:31:54;2.37;;;0.80;;
14092;SDS011;7123;49.468;10.992;2022-12-31T07:37:14;1.10;;;1.00;;
14092;SDS011;7123;49.468;10.992;2022-12-31T07:40:12;0.77;;;0.77;;
14092;SDS011;7123;49.468;10.992;2022-12-31T07:43:08;3.90;;;0.90;;
14092;SDS011;7123;49.468;10.992;2022-12-31T07:45:58;0.70;;;0.70;;
14092;SDS011;7123;49.468;10.992;2022-12-31T07:48:42;1.40;;;0.60;;
14092;SDS011;7123;49.468;10.992;2022-12-31T07:51:09;1.27;;;0.80;;
14092;SDS011;7123;49.468;10.992;2022-12-31T07:53:36;1.50;;;0.73;;
14092;SDS011;7123;49.468;10.992;2022-12-31T07:56:04;1.70;;;1.10;;
14092;SDS011;7123;49.468;10.992;2022-12-31T08:01:08;2.83;;;1.10;;
14092;SDS011;7123;49.468;10.992;2022-12-31T08:10:23;2.23;;;0.83;;
14092;SDS011;7123;49.468;10.992;2022-12-31T08:12:21;0.60;;;0.60;;
14092;SDS011;7123;49.468;10.992;2022-12-31T08:14:49;0.80;;;0.80;;
14092;SDS011;7123;49.468;10.992;2022-12-31T08:17:17;1.37;;;0.90;;
14092;SDS011;7123;49.468;10.992;2022-12-31T08:19:44;0.80;;;0.80;;
14092;SDS011;7123;49.468;10.992;2022-12-31T08:22:21;0.80;;;0.80;;
14092;SDS011;7123;49.468;10.992;2022-12-31T08:27:59;1.23;;;0.90;;
14092;SDS011;7123;49.468;10.992;2022-12-31T08:36:02;0.80;;;0.80;;
14092;SDS011;7123;49.468;10.992;2022-12-31T08:41:22;2.97;;;1.07;;
14092;SDS011;7123;49.468;10.992;2022-12-31T08:44:16;1.60;;;0.77;;
14092;SDS011;7123;49.468;10.992;2022-12-31T08:49:18;1.20;;;0.60;;
14092;SDS011;7123;49.468;10.992;2022-12-31T08:51:45;0.50;;;0.50;;
14092;SDS011;7123;49.468;10.992;2022-12-31T08:54:11;0.77;;;0.70;;
14092;SDS011;7123;49.468;10.992;2022-12-31T09:02:34;0.70;;;0.70;;
14092;SDS011;7123;49.468;10.992;2022-12-31T09:05:17;0.77;;;0.70;;
14092;SDS011;7123;49.468;10.992;2022-12-31T09:08:20;1.03;;;0.83;;
14092;SDS011;7123;49.468;10.992;2022-12-31T09:11:12;0.73;;;0.73;;
14092;SDS011;7123;49.468;10.992;2022-12-31T09:14:16;0.87;;;0.87;;
14092;SDS011;7123;49.468;10.992;2022-12-31T09:19:17;1.17;;;1.07;;
14092;SDS011;7123;49.468;10.992;2022-12-31T09:21:44;1.13;;;0.80;;
14092;SDS011;7123;49.468;10.992;2022-12-31T09:24:11;0.70;;;0.70;;
14092;SDS011;7123;49.468;10.992;2022-12-31T09:26:47;0.70;;;0.70;;
14092;SDS011;7123;49.468;10.992;2022-12-31T09:29:19;0.80;;;0.80;;
14092;SDS011;7123;49.468;10.992;2022-12-31T09:32:18;1.90;;;0.80;;
14092;SDS011;7123;49.468;10.992;2022-12-31T09:37:22;1.07;;;0.70;;
14092;SDS011;7123;49.468;10.992;2022-12-31T09:40:09;0.60;;;0.60;;
14092;SDS011;7123;49.468;10.992;2022-12-31T09:45:40;0.60;;;0.50;;
14092;SDS011;7123;49.468;10.992;2022-12-31T09:48:33;0.73;;;0.67;;
14092;SDS011;7123;49.468;10.992;2022-12-31T09:51:36;0.50;;;0.50;;
14092;SDS011;7123;49.468;10.992;2022-12-31T09:59:45;1.60;;;0.50;;
14092;SDS011;7123;49.468;10.992;2022-12-31T10:05:31;0.77;;;0.70;;
14092;SDS011;7123;49.468;10.992;2022-12-31T10:13:41;0.50;;;0.50;;
14092;SDS011;7123;49.468;10.992;2022-12-31T10:27:51;3.80;;;0.63;;
14092;SDS011;7123;49.468;10.992;2022-12-31T10:30:26;0.50;;;0.50;;
14092;SDS011;7123;49.468;10.992;2022-12-31T10:33:12;1.07;;;0.80;;
14092;SDS011;7123;49.468;10.992;2022-12-31T10:38:28;0.77;;;0.77;;
14092;SDS011;7123;49.468;10.992;2022-12-31T10:41:20;0.87;;;0.87;;
14092;SDS011;7123;49.468;10.992;2022-12-31T10:53:12;2.33;;;1.13;;
14092;SDS011;7123;49.468;10.992;2022-12-31T11:01:30;1.73;;;0.60;;
14092;SDS011;7123;49.468;10.992;2022-12-31T11:06:56;0.80;;;0.80;;
14092;SDS011;7123;49.468;10.992;2022-12-31T11:18:34;2.00;;;0.90;;
14092;SDS011;7123;49.468;10.992;2022-12-31T11:21:46;0.80;;;0.80;;
14092;SDS011;7123;49.468;10.992;2022-12-31T11:32:42;0.87;;;0.83;;
14092;SDS011;7123;49.468;10.992;2022-12-31T11:35:19;0.80;;;0.70;;
14092;SDS011;7123;49.468;10.992;2022-12-31T11:38:20;1.17;;;0.90;;
14092;SDS011;7123;49.468;10.992;2022-12-31T11:43:29;1.10;;;0.90;;
14092;SDS011;7123;49.468;10.992;2022-12-31T11:54:31;0.80;;;0.80;;
14092;SDS011;7123;49.468;10.992;2022-12-31T11:57:12;0.80;;;0.80;;
14092;SDS011;7123;49.468;10.992;2022-12-31T11:59:53;1.07;;;1.00;;
14092;SDS011;7123;49.468;10.992;2022-12-31T12:02:27;1.03;;;1.03;;
14092;SDS011;7123;49.468;10.992;2022-12-31T12:04:58;2.60;;;1.17;;
14092;SDS011;7123;49.468;10.992;2022-12-31T12:07:35;1.00;;;1.00;;
14092;SDS011;7123;49.468;10.992;2022-12-31T12:10:03;1.10;;;1.00;;
14092;SDS011;7123;49.468;10.992;2022-12-31T12:13:08;4.00;;;1.20;;
14092;SDS011;7123;49.468;10.992;2022-12-31T12:15:48;8.00;;;1.07;;
14092;SDS011;7123;49.468;10.992;2022-12-31T12:18:38;6.60;;;1.10;;
14092;SDS011;7123;49.468;10.992;2022-12-31T12:21:26;2.60;;;1.00;;
14092;SDS011;7123;49.468;10.992;2022-12-31T12:26:46;1.00;;;1.00;;
14092;SDS011;7123;49.468;10.992;2022-12-31T12:31:40;1.10;;;1.00;;
14092;SDS011;7123;49.468;10.992;2022-12-31T12:34:23;1.00;;;0.90;;
14092;SDS011;7123;49.468;10.992;2022-12-31T12:36:52;1.40;;;0.97;;
14092;SDS011;7123;49.468;10.992;2022-12-31T12:39:21;0.73;;;0.70;;
14092;SDS011;7123;49.468;10.992;2022-12-31T12:42:06;1.33;;;0.73;;
14092;SDS011;7123;49.468;10.992;2022-12-31T12:44:36;1.47;;;0.80;;
14092;SDS011;7123;49.468;10.992;2022-12-31T12:47:04;1.37;;;0.80;;
14092;SDS011;7123;49.468;10.992;2022-12-31T12:49:43;1.10;;;1.00;;
14092;SDS011;7123;49.468;10.992;2022-12-31T12:57:49;2.87;;;1.53;;
14092;SDS011;7123;49.468;10.992;2022-12-31T13:00:43;2.03;;;1.30;;
14092;SDS011;7123;49.468;10.992;2022-12-31T13:03:19;2.37;;;1.20;;
14092;SDS011;7123;49.468;10.992;2022-12-31T13:06:03;1.50;;;1.20;;
14092;SDS011;7123;49.468;10.992;2022-12-31T13:08:44;1.30;;;1.20;;
14092;SDS011;7123;49.468;10.992;2022-12-31T13:11:50;1.13;;;1.03;;
14092;SDS011;7123;49.468;10.992;2022-12-31T13:20:25;1.83;;;1.30;;
14092;SDS011;7123;49.468;10.992;2022-12-31T13:25:34;2.00;;;1.10;;
14092;SDS011;7123;49.468;10.992;2022-12-31T13:28:10;1.00;;;0.90;;
14092;SDS011;7123;49.468;10.992;2022-12-31T13:30:59;1.80;;;1.20;;
14092;SDS011;7123;49.468;10.992;2022-12-31T13:33:34;1.00;;;1.00;;
14092;SDS011;7123;49.468;10.992;2022-12-31T13:36:04;1.57;;;1.00;;
14092;SDS011;7123;49.468;10.992;2022-12-31T13:38:35;1.00;;;1.00;;
14092;SDS011;7123;49.468;10.992;2022-12-31T13:41:14;1.27;;;1.17;;
14092;SDS011;7123;49.468;10.992;2022-12-31T13:43:57;1.43;;;1.03;;
14092;SDS011;7123;49.468;10.992;2022-12-31T13:49:42;1.93;;;1.00;;
14092;SDS011;7123;49.468;10.992;2022-12-31T13:55:14;2.77;;;0.83;;
14092;SDS011;7123;49.468;10.992;2022-12-31T13:57:52;1.83;;;1.20;;
14092;SDS011;7123;49.468;10.992;2022-12-31T14:00:39;1.63;;;1.20;;
14092;SDS011;7123;49.468;10.992;2022-12-31T14:06:00;1.37;;;1.10;;
14092;SDS011;7123;49.468;10.992;2022-12-31T14:08:34;1.07;;;0.93;;
14092;SDS011;7123;49.468;10.992;2022-12-31T14:13:52;2.17;;;1.40;;
14092;SDS011;7123;49.468;10.992;2022-12-31T14:19:11;1.83;;;1.20;;
14092;SDS011;7123;49.468;10.992;2022-12-31T14:22:02;5.37;;;1.27;;
14092;SDS011;7123;49.468;10.992;2022-12-31T14:24:46;2.13;;;1.87;;
14092;SDS011;7123;49.468;10.992;2022-12-31T14:29:48;3.03;;;2.23;;
14092;SDS011;7123;49.468;10.992;2022-12-31T14:32:41;1.70;;;1.60;;
14092;SDS011;7123;49.468;10.992;2022-12-31T14:35:31;1.70;;;1.40;;
14092;SDS011;7123;49.468;10.992;2022-12-31T14:47:05;3.67;;;1.50;;
14092;SDS011;7123;49.468;10.992;2022-12-31T14:52:29;2.37;;;1.30;;
14092;SDS011;7123;49.468;10.992;2022-12-31T14:57:42;5.27;;;1.40;;
14092;SDS011;7123;49.468;10.992;2022-12-31T15:00:32;2.70;;;1.63;;
14092;SDS011;7123;49.468;10.992;2022-12-31T15:05:49;3.87;;;1.77;;
14092;SDS011;7123;49.468;10.992;2022-12-31T15:14:06;1.90;;;1.70;;
14092;SDS011;7123;49.468;10.992;2022-12-31T15:19:51;1.93;;;1.70;;
14092;SDS011;7123;49.468;10.992;2022-12-31T15:22:46;2.77;;;1.40;;
14092;SDS011;7123;49.468;10.992;2022-12-31T15:25:25;2.27;;;1.90;;
14092;SDS011;7123;49.468;10.992;2022-12-31T15:27:53;1.83;;;1.60;;
14092;SDS011;7123;49.468;10.992;2022-12-31T15:33:02;3.83;;;2.50;;
14092;SDS011;7123;49.468;10.992;2022-12-31T15:35:49;4.57;;;3.47;;
14092;SDS011;7123;49.468;10.992;2022-12-31T15:38:39;3.73;;;3.40;;
14092;SDS011;7123;49.468;10.992;2022-12-31T15:44:01;3.47;;;3.17;;
14092;SDS011;7123;49.468;10.992;2022-12-31T15:46:54;4.50;;;3.50;;
14092;SDS011;7123;49.468;10.992;2022-12-31T15:49:43;4.00;;;3.60;;
14092;SDS011;7123;49.468;10.992;2022-12-31T15:52:19;4.20;;;3.40;;
14092;SDS011;7123;49.468;10.992;2022-12-31T15:54:50;4.90;;;4.37;;
14092;SDS011;7123;49.468;10.992;2022-12-31T15:57:36;9.20;;;5.17;;
14092;SDS011;7123;49.468;10.992;2022-12-31T16:00:06;7.80;;;5.33;;
14092;SDS011;7123;49.468;10.992;2022-12-31T16:02:44;6.97;;;4.90;;
14092;SDS011;7123;49.468;10.992;2022-12-31T16:05:22;4.20;;;3.80;;
14092;SDS011;7123;49.468;10.992;2022-12-31T16:07:54;3.40;;;3.10;;
14092;SDS011;7123;49.468;10.992;2022-12-31T16:10:24;4.13;;;3.17;;
14092;SDS011;7123;49.468;10.992;2022-12-31T16:12:54;5.93;;;2.73;;
14092;SDS011;7123;49.468;10.992;2022-12-31T16:15:23;3.13;;;2.40;;
14092;SDS011;7123;49.468;10.992;2022-12-31T16:18:02;4.57;;;2.53;;
14092;SDS011;7123;49.468;10.992;2022-12-31T16:20:32;3.70;;;2.63;;
14092;SDS011;7123;49.468;10.992;2022-12-31T16:23:00;3.83;;;3.50;;
14092;SDS011;7123;49.468;10.992;2022-12-31T16:25:29;3.70;;;3.40;;
14092;SDS011;7123;49.468;10.992;2022-12-31T16:27:58;5.67;;;4.17;;
14092;SDS011;7123;49.468;10.992;2022-12-31T16:30:28;4.97;;;4.40;;
14092;SDS011;7123;49.468;10.992;2022-12-31T16:33:01;6.20;;;4.77;;
14092;SDS011;7123;49.468;10.992;2022-12-31T16:35:32;5.20;;;4.70;;
14092;SDS011;7123;49.468;10.992;2022-12-31T16:38:11;5.90;;;5.30;;
14092;SDS011;7123;49.468;10.992;2022-12-31T16:40:40;12.63;;;6.10;;
14092;SDS011;7123;49.468;10.992;2022-12-31T16:43:38;10.50;;;7.63;;
14092;SDS011;7123;49.468;10.992;2022-12-31T16:46:10;9.10;;;7.17;;
14092;SDS011;7123;49.468;10.992;2022-12-31T16:48:47;10.97;;;7.27;;
14092;SDS011;7123;49.468;10.992;2022-12-31T16:51:19;8.90;;;7.27;;
14092;SDS011;7123;49.468;10.992;2022-12-31T16:53:48;7.13;;;6.43;;
14092;SDS011;7123;49.468;10.992;2022-12-31T16:56:23;10.37;;;6.93;;
14092;SDS011;7123;49.468;10.992;2022-12-31T16:58:58;7.67;;;6.87;;
14092;SDS011;7123;49.468;10.992;2022-12-31T17:01:29;10.13;;;7.10;;
14092;SDS011;7123;49.468;10.992;2022-12-31T17:03:59;8.60;;;6.77;;
14092;SDS011;7123;49.468;10.992;2022-12-31T17:06:31;9.87;;;7.70;;
14092;SDS011;7123;49.468;10.992;2022-12-31T17:11:56;27.83;;;16.80;;
14092;SDS011;7123;49.468;10.992;2022-12-31T17:14:33;16.63;;;12.57;;
14092;SDS011;7123;49.468;10.992;2022-12-31T17:17:18;14.60;;;10.27;;
14092;SDS011;7123;49.468;10.992;2022-12-31T17:19:50;12.70;;;9.03;;
14092;SDS011;7123;49.468;10.992;2022-12-31T17:35:40;13.57;;;10.00;;
14092;SDS011;7123;49.468;10.992;2022-12-31T17:40:50;14.33;;;11.30;;
14092;SDS011;7123;49.468;10.992;2022-12-31T17:43:31;13.10;;;10.83;;
14092;SDS011;7123;49.468;10.992;2022-12-31T17:46:02;12.30;;;10.03;;
14092;SDS011;7123;49.468;10.992;2022-12-31T17:48:34;11.83;;;9.43;;
14092;SDS011;7123;49.468;10.992;2022-12-31T17:51:01;20.07;;;12.50;;
14092;SDS011;7123;49.468;10.992;2022-12-31T17:53:28;22.70;;;15.03;;
14092;SDS011;7123;49.468;10.992;2022-12-31T17:55:55;14.30;;;10.27;;
14092;SDS011;7123;49.468;10.992;2022-12-31T17:58:35;14.33;;;9.77;;
14092;SDS011;7123;49.468;10.992;2022-12-31T18:01:07;15.57;;;11.57;;
14092;SDS011;7123;49.468;10.992;2022-12-31T18:03:38;23.30;;;15.30;;
14092;SDS011;7123;49.468;10.992;2022-12-31T18:06:07;26.40;;;18.20;;
14092;SDS011;7123;49.468;10.992;2022-12-31T18:08:41;27.17;;;19.20;;
14092;SDS011;7123;49.468;10.992;2022-12-31T18:11:13;22.67;;;16.40;;
14092;SDS011;7123;49.468;10.992;2022-12-31T18:13:45;21.87;;;14.77;;
14092;SDS011;7123;49.468;10.992;2022-12-31T18:16:12;24.40;;;17.43;;
14092;SDS011;7123;49.468;10.992;2022-12-31T18:18:40;24.00;;;18.73;;
14092;SDS011;7123;49.468;10.992;2022-12-31T18:21:10;25.77;;;17.70;;
14092;SDS011;7123;49.468;10.992;2022-12-31T18:23:43;23.87;;;17.27;;
14092;SDS011;7123;49.468;10.992;2022-12-31T18:26:12;24.97;;;17.63;;
14092;SDS011;7123;49.468;10.992;2022-12-31T18:28:41;20.53;;;16.17;;
14092;SDS011;7123;49.468;10.992;2022-12-31T18:31:21;21.43;;;15.33;;
14092;SDS011;7123;49.468;10.992;2022-12-31T18:33:50;21.10;;;14.50;;
14092;SDS011;7123;49.468;10.992;2022-12-31T18:36:19;19.03;;;13.97;;
14092;SDS011;7123;49.468;10.992;2022-12-31T18:38:46;17.70;;;13.17;;
14092;SDS011;7123;49.468;10.992;2022-12-31T18:41:17;19.80;;;14.27;;
14092;SDS011;7123;49.468;10.992;2022-12-31T18:43:49;20.37;;;14.17;;
14092;SDS011;7123;49.468;10.992;2022-12-31T18:46:17;22.17;;;14.90;;
14092;SDS011;7123;49.468;10.992;2022-12-31T18:48:47;32.77;;;24.47;;
14092;SDS011;7123;49.468;10.992;2022-12-31T18:51:18;31.17;;;21.10;;
14092;SDS011;7123;49.468;10.992;2022-12-31T18:53:51;29.17;;;21.67;;
14092;SDS011;7123;49.468;10.992;2022-12-31T18:56:18;33.00;;;22.27;;
14092;SDS011;7123;49.468;10.992;2022-12-31T18:58:46;33.93;;;24.43;;
14092;SDS011;7123;49.468;10.992;2022-12-31T19:04:01;24.97;;;19.70;;
14092;SDS011;7123;49.468;10.992;2022-12-31T19:06:29;26.17;;;17.50;;
14092;SDS011;7123;49.468;10.992;2022-12-31T19:08:56;21.60;;;16.30;;
14092;SDS011;7123;49.468;10.992;2022-12-31T19:11:26;18.83;;;15.10;;
14092;SDS011;7123;49.468;10.992;2022-12-31T19:13:53;20.07;;;15.17;;
14092;SDS011;7123;49.468;10.992;2022-12-31T19:16:19;18.37;;;13.00;;
14092;SDS011;7123;49.468;10.992;2022-12-31T19:18:46;16.33;;;12.57;;
14092;SDS011;7123;49.468;10.992;2022-12-31T19:21:15;15.80;;;11.57;;
14092;SDS011;7123;49.468;10.992;2022-12-31T19:23:44;16.57;;;12.40;;